Time;durP1;ratioP1;P1;durP2;ratioP2;P2;SDS_P1;SDS_P2;PMS_P1;PMS_P2;Temp;Humidity;BMP_temperature;BMP_pressure;BME280_temperature;BME280_humidity;BME280_pressure;Samples;Min_cycle;Max_cycle;Signal;HPM_P1;HPM_P2
2022/04/20 00:01:00;;;;;;;3.85;2.55;;;;;;;;;;5113844;28;20012;-75
2022/04/20 00:03:26;;;;;;;3.17;2.33;;;;;;;;;;5113557;28;20110;-75
2022/04/20 00:05:52;;;;;;;2.75;1.92;;;;;;;;;;5127346;27;20098;-76
2022/04/20 00:08:17;;;;;;;3.28;2.33;;;;;;;;;;5113635;28;20103;-77
2022/04/20 00:10:42;;;;;;;2.60;2.00;;;;;;;;;;5113393;28;20043;-77
2022/04/20 00:13:08;;;;;;;5.05;2.33;;;;;;;;;;5113342;28;20015;-76
2022/04/20 00:15:33;;;;;;;2.42;1.90;;;;;;;;;;5113375;27;20433;-76
2022/04/20 00:17:58;;;;;;;5.60;2.53;;;;;;;;;;5113366;28;20044;-76
2022/04/20 00:20:23;;;;;;;3.55;2.20;;;;;;;;;;5113250;28;20045;-75
2022/04/20 00:22:49;;;;;;;3.35;2.30;;;;;;;;;;5112547;28;20023;-74
2022/04/20 00:25:14;;;;;;;3.78;2.05;;;;;;;;;;5112934;28;20020;-74
2022/04/20 00:27:39;;;;;;;4.28;2.42;;;;;;;;;;5112341;28;20522;-74
2022/04/20 00:30:06;;;;;;;3.92;2.17;;;;;;;;;;5114264;28;20023;-79
2022/04/20 00:32:31;;;;;;;2.90;2.20;;;;;;;;;;5114819;28;20039;-75
2022/04/20 00:34:56;;;;;;;3.78;2.33;;;;;;;;;;5112652;28;20015;-75
2022/04/20 00:37:22;;;;;;;3.70;2.42;;;;;;;;;;5112256;28;20022;-74
2022/04/20 00:39:47;;;;;;;5.13;2.35;;;;;;;;;;5111803;28;20020;-75
2022/04/20 00:42:13;;;;;;;4.75;2.22;;;;;;;;;;5112958;28;20434;-74
2022/04/20 00:44:39;;;;;;;3.55;2.55;;;;;;;;;;5112833;28;20020;-75
2022/04/20 00:47:05;;;;;;;3.13;2.17;;;;;;;;;;5113240;28;20011;-74
2022/04/20 00:49:31;;;;;;;3.35;2.35;;;;;;;;;;5112874;28;20073;-74
2022/04/20 00:51:59;;;;;;;3.45;2.42;;;;;;;;;;5112899;27;20557;-75
2022/04/20 00:54:25;;;;;;;3.22;2.30;;;;;;;;;;5112647;27;20019;-74
2022/04/20 00:56:50;;;;;;;4.88;2.50;;;;;;;;;;5113856;28;20396;-74
2022/04/20 00:59:17;;;;;;;3.30;2.38;;;;;;;;;;5117702;28;20042;-75
2022/04/20 01:01:42;;;;;;;3.97;2.53;;;;;;;;;;5117904;28;20052;-76
2022/04/20 01:04:07;;;;;;;4.55;2.67;;;;;;;;;;5112755;28;20012;-75
2022/04/20 01:06:33;;;;;;;3.42;2.53;;;;;;;;;;5112469;28;20024;-76
2022/04/20 01:08:59;;;;;;;4.32;2.50;;;;;;;;;;5112494;28;20035;-76
2022/04/20 01:11:26;;;;;;;4.50;2.55;;;;;;;;;;5112019;28;20040;-77
2022/04/20 01:13:51;;;;;;;3.60;2.65;;;;;;;;;;5112145;28;20016;-80
2022/04/20 01:16:16;;;;;;;3.83;2.67;;;;;;;;;;5112761;28;20022;-81
2022/04/20 01:18:45;;;;;;;3.65;2.42;;;;;;;;;;5111329;28;20026;-78
2022/04/20 01:21:11;;;;;;;3.40;2.67;;;;;;;;;;5113214;27;20030;-79
2022/04/20 01:23:36;;;;;;;6.10;3.13;;;;;;;;;;5112219;28;20007;-78
2022/04/20 01:26:05;;;;;;;4.00;2.58;;;;;;;;;;5114544;28;20020;-79
2022/04/20 01:28:30;;;;;;;5.20;2.97;;;;;;;;;;5115747;27;20057;-76
2022/04/20 01:30:55;;;;;;;4.03;2.70;;;;;;;;;;5132139;27;20063;-75
2022/04/20 01:33:20;;;;;;;4.45;2.70;;;;;;;;;;5132221;27;20388;-79
2022/04/20 01:35:47;;;;;;;5.60;3.05;;;;;;;;;;5111992;27;20024;-76
2022/04/20 01:38:12;;;;;;;4.72;2.70;;;;;;;;;;5126303;27;20027;-75
2022/04/20 01:40:38;;;;;;;3.95;2.97;;;;;;;;;;5113458;28;20020;-79
2022/04/20 01:43:03;;;;;;;3.75;2.53;;;;;;;;;;5115803;28;20015;-77
2022/04/20 01:45:28;;;;;;;4.43;2.90;;;;;;;;;;5114794;28;20012;-76
2022/04/20 01:47:53;;;;;;;4.30;3.15;;;;;;;;;;5112805;28;20110;-77
2022/04/20 01:50:19;;;;;;;5.18;3.17;;;;;;;;;;5111716;28;20039;-79
2022/04/20 01:52:47;;;;;;;4.32;2.80;;;;;;;;;;5113455;28;20059;-83
2022/04/20 01:55:12;;;;;;;7.45;3.33;;;;;;;;;;5112888;28;20046;-77
2022/04/20 01:57:37;;;;;;;4.75;3.10;;;;;;;;;;5111309;28;20468;-77
2022/04/20 02:00:03;;;;;;;4.53;2.95;;;;;;;;;;5111442;28;20015;-77
2022/04/20 02:02:34;;;;;;;3.85;2.63;;;;;;;;;;5112044;27;20020;-76
2022/04/20 02:05:00;;;;;;;4.28;3.03;;;;;;;;;;5111199;28;20519;-76
2022/04/20 02:07:25;;;;;;;4.72;3.08;;;;;;;;;;5111201;28;20149;-75
2022/04/20 02:09:50;;;;;;;6.07;3.42;;;;;;;;;;5110045;28;20016;-75
2022/04/20 02:12:15;;;;;;;4.30;3.22;;;;;;;;;;5110774;28;20058;-79
2022/04/20 02:14:40;;;;;;;4.32;3.15;;;;;;;;;;5119469;27;20019;-76
2022/04/20 02:17:06;;;;;;;6.72;3.45;;;;;;;;;;5132021;27;20494;-78
2022/04/20 02:19:31;;;;;;;6.63;3.08;;;;;;;;;;5131174;27;20383;-77
2022/04/20 02:21:56;;;;;;;4.13;2.73;;;;;;;;;;5138681;27;20450;-82
2022/04/20 02:24:21;;;;;;;6.07;3.30;;;;;;;;;;5116935;28;20791;-81
2022/04/20 02:26:47;;;;;;;5.05;3.85;;;;;;;;;;5115706;28;20416;-80
2022/04/20 02:29:12;;;;;;;4.90;3.17;;;;;;;;;;5115417;28;20031;-87
2022/04/20 02:31:37;;;;;;;5.38;3.90;;;;;;;;;;5115086;28;20027;-83
2022/04/20 02:34:02;;;;;;;4.80;3.53;;;;;;;;;;5116749;28;20023;-84
2022/04/20 02:36:28;;;;;;;4.22;2.95;;;;;;;;;;5121597;28;20015;-83
2022/04/20 02:38:53;;;;;;;7.75;3.83;;;;;;;;;;5136503;27;20034;-81
2022/04/20 02:41:19;;;;;;;5.78;3.85;;;;;;;;;;5135841;28;20015;-82
2022/04/20 02:43:44;;;;;;;5.90;4.13;;;;;;;;;;5138274;28;20012;-84
2022/04/20 02:46:09;;;;;;;5.38;3.65;;;;;;;;;;5119752;27;20062;-84
2022/04/20 02:48:35;;;;;;;7.40;4.18;;;;;;;;;;5120387;28;20030;-85
2022/04/20 02:51:00;;;;;;;5.97;4.00;;;;;;;;;;5122078;28;20027;-84
2022/04/20 02:53:25;;;;;;;7.13;4.35;;;;;;;;;;5120381;28;20054;-85
2022/04/20 02:55:51;;;;;;;5.40;4.03;;;;;;;;;;5119703;28;20456;-83
2022/04/20 02:58:16;;;;;;;5.65;4.05;;;;;;;;;;5119226;28;20099;-81
2022/04/20 03:00:43;;;;;;;6.32;4.60;;;;;;;;;;5118227;28;20023;-83
2022/04/20 03:03:08;;;;;;;6.32;4.38;;;;;;;;;;5120032;28;20023;-82
2022/04/20 03:05:33;;;;;;;7.20;4.70;;;;;;;;;;5120029;28;20023;-84
2022/04/20 03:07:58;;;;;;;7.20;4.85;;;;;;;;;;5119772;28;20252;-80
2022/04/20 03:10:24;;;;;;;9.70;5.82;;;;;;;;;;5119909;28;20090;-79
2022/04/20 03:12:49;;;;;;;7.97;4.82;;;;;;;;;;5124309;28;20027;-84
2022/04/20 03:15:14;;;;;;;9.90;5.07;;;;;;;;;;5123522;27;19999;-84
2022/04/20 03:17:40;;;;;;;8.00;5.72;;;;;;;;;;5141582;27;20023;-84
2022/04/20 03:20:06;;;;;;;9.18;5.10;;;;;;;;;;5139027;27;20102;-83
2022/04/20 03:22:32;;;;;;;9.02;5.60;;;;;;;;;;5136791;27;20011;-82
2022/04/20 03:24:57;;;;;;;9.50;5.68;;;;;;;;;;5119077;27;20527;-82
2022/04/20 03:27:23;;;;;;;10.98;6.10;;;;;;;;;;5116499;28;20633;-83
2022/04/20 03:29:48;;;;;;;9.45;5.30;;;;;;;;;;5118379;28;20123;-80
2022/04/20 03:32:14;;;;;;;10.82;5.28;;;;;;;;;;5117452;28;20059;-85
2022/04/20 03:34:40;;;;;;;5.78;4.28;;;;;;;;;;5118691;28;20020;-83
2022/04/20 03:37:06;;;;;;;5.78;3.92;;;;;;;;;;5116235;28;20046;-79
2022/04/20 03:39:34;;;;;;;6.88;4.30;;;;;;;;;;5114571;27;20047;-83
2022/04/20 03:42:00;;;;;;;9.75;5.30;;;;;;;;;;5117452;28;20039;-84
2022/04/20 03:44:26;;;;;;;8.00;5.25;;;;;;;;;;5118084;28;20020;-83
2022/04/20 03:46:51;;;;;;;8.07;5.47;;;;;;;;;;5116943;28;20019;-81
2022/04/20 03:49:16;;;;;;;10.13;5.82;;;;;;;;;;5117134;28;20123;-81
2022/04/20 03:51:43;;;;;;;9.57;6.20;;;;;;;;;;5120005;28;20024;-81
2022/04/20 03:54:08;;;;;;;10.52;6.38;;;;;;;;;;5118311;28;20024;-80
2022/04/20 03:59:17;;;;;;;13.82;7.82;;;;;;;;;;5115233;28;20718;-83
2022/04/20 04:01:42;;;;;;;11.90;7.50;;;;;;;;;;5114315;27;20015;-83
2022/04/20 04:04:08;;;;;;;14.05;8.15;;;;;;;;;;5120968;28;20019;-81
2022/04/20 04:06:33;;;;;;;13.30;7.05;;;;;;;;;;5116671;28;20140;-80
2022/04/20 04:08:59;;;;;;;17.23;8.05;;;;;;;;;;5116037;28;20015;-81
2022/04/20 04:11:24;;;;;;;12.05;7.30;;;;;;;;;;5114801;28;20377;-80
2022/04/20 04:13:49;;;;;;;11.93;7.55;;;;;;;;;;5116259;28;20114;-82
2022/04/20 04:16:14;;;;;;;10.50;6.38;;;;;;;;;;5115994;28;20048;-82
2022/04/20 04:18:40;;;;;;;13.73;7.97;;;;;;;;;;5115100;28;20019;-80
2022/04/20 04:21:05;;;;;;;13.65;7.65;;;;;;;;;;5114013;28;20031;-81
2022/04/20 04:23:30;;;;;;;14.45;8.23;;;;;;;;;;5114126;28;20035;-79
2022/04/20 04:25:56;;;;;;;16.95;8.63;;;;;;;;;;5115455;27;20012;-78
2022/04/20 04:28:21;;;;;;;16.75;8.05;;;;;;;;;;5114697;28;20503;-81
2022/04/20 04:30:46;;;;;;;13.20;6.97;;;;;;;;;;5115969;28;20019;-79
2022/04/20 04:33:11;;;;;;;14.07;8.55;;;;;;;;;;5115295;28;20016;-79
2022/04/20 04:35:37;;;;;;;12.18;7.13;;;;;;;;;;5117462;27;20012;-78
2022/04/20 04:38:02;;;;;;;16.58;8.35;;;;;;;;;;5122535;27;20479;-79
2022/04/20 04:40:27;;;;;;;12.60;7.68;;;;;;;;;;5122085;27;20015;-80
2022/04/20 04:42:52;;;;;;;13.43;7.68;;;;;;;;;;5127610;27;20011;-78
2022/04/20 04:50:46;;;;;;;12.75;7.40;;;;;;;;;;5122224;27;20074;-76
2022/04/20 04:53:12;;;;;;;13.35;8.32;;;;;;;;;;5125144;27;20087;-76
2022/04/20 04:55:37;;;;;;;12.52;7.55;;;;;;;;;;5120629;27;20079;-76
2022/04/20 04:58:02;;;;;;;18.98;9.48;;;;;;;;;;5122551;27;20027;-79
2022/04/20 05:00:28;;;;;;;24.67;10.98;;;;;;;;;;5121747;27;20053;-78
2022/04/20 05:02:53;;;;;;;21.88;10.88;;;;;;;;;;5120524;27;20096;-76
2022/04/20 05:05:18;;;;;;;23.98;10.88;;;;;;;;;;5133850;27;20030;-76
2022/04/20 05:07:44;;;;;;;18.40;9.75;;;;;;;;;;5121609;27;20020;-77
2022/04/20 05:10:09;;;;;;;21.13;10.40;;;;;;;;;;5110781;27;20023;-75
2022/04/20 05:12:35;;;;;;;22.48;11.00;;;;;;;;;;5123048;27;20026;-77
2022/04/20 05:15:01;;;;;;;17.30;9.75;;;;;;;;;;5121483;27;20479;-75
2022/04/20 05:17:26;;;;;;;17.35;9.05;;;;;;;;;;5119550;27;20114;-75
2022/04/20 05:19:51;;;;;;;14.70;9.18;;;;;;;;;;5120137;27;20111;-74
2022/04/20 05:22:17;;;;;;;16.38;8.75;;;;;;;;;;5131227;27;20022;-75
2022/04/20 05:24:42;;;;;;;16.48;9.18;;;;;;;;;;5136443;27;20027;-84
2022/04/20 05:27:08;;;;;;;17.20;8.33;;;;;;;;;;5141829;27;20047;-79
2022/04/20 05:29:34;;;;;;;13.90;7.68;;;;;;;;;;5135360;27;20259;-79
2022/04/20 05:31:59;;;;;;;16.58;9.50;;;;;;;;;;5138011;27;20387;-82
2022/04/20 05:34:26;;;;;;;12.32;7.25;;;;;;;;;;5144722;27;20026;-83
2022/04/20 05:42:19;;;;;;;9.68;5.78;;;;;;;;;;5139045;27;20052;-76
2022/04/20 05:44:47;;;;;;;10.02;6.38;;;;;;;;;;5141673;27;20019;-79
2022/04/20 05:47:12;;;;;;;7.78;5.22;;;;;;;;;;5136853;27;20011;-83
2022/04/20 05:49:37;;;;;;;8.90;5.95;;;;;;;;;;5136036;27;20022;-83
2022/04/20 05:52:02;;;;;;;6.85;4.72;;;;;;;;;;5135026;27;20110;-77
2022/04/20 05:54:28;;;;;;;10.05;5.85;;;;;;;;;;5135255;27;20487;-76
2022/04/20 05:56:53;;;;;;;8.90;5.47;;;;;;;;;;5136704;27;20008;-75
2022/04/20 05:59:18;;;;;;;8.20;5.10;;;;;;;;;;5132690;27;20019;-74
2022/04/20 06:01:44;;;;;;;10.55;5.57;;;;;;;;;;5133780;27;20047;-76
2022/04/20 06:04:09;;;;;;;8.07;5.10;;;;;;;;;;5132496;27;20056;-75
2022/04/20 06:06:34;;;;;;;7.72;4.82;;;;;;;;;;5132323;27;20018;-76
2022/04/20 06:09:00;;;;;;;7.50;4.95;;;;;;;;;;5133329;27;20054;-77
2022/04/20 06:11:26;;;;;;;7.38;4.75;;;;;;;;;;5136414;27;20030;-79
2022/04/20 06:13:52;;;;;;;10.98;5.25;;;;;;;;;;5135956;27;20463;-76
2022/04/20 06:16:17;;;;;;;9.45;5.47;;;;;;;;;;5133511;27;20011;-76
2022/04/20 06:18:42;;;;;;;7.82;4.70;;;;;;;;;;5131637;27;20019;-76
2022/04/20 06:21:07;;;;;;;12.27;5.13;;;;;;;;;;5131492;27;20019;-75
2022/04/20 06:23:33;;;;;;;8.35;5.55;;;;;;;;;;5131682;27;20027;-76
2022/04/20 06:25:58;;;;;;;16.48;8.27;;;;;;;;;;5130843;27;20026;-77
2022/04/20 06:28:26;;;;;;;10.45;6.45;;;;;;;;;;5131309;28;20044;-76
2022/04/20 06:30:52;;;;;;;17.80;9.85;;;;;;;;;;5131353;27;20023;-75
2022/04/20 06:33:17;;;;;;;10.63;6.88;;;;;;;;;;5132347;27;20046;-77
2022/04/20 06:35:42;;;;;;;10.30;6.00;;;;;;;;;;5131067;27;20372;-76
2022/04/20 06:38:08;;;;;;;7.45;5.50;;;;;;;;;;5129221;28;20677;-79
2022/04/20 06:40:33;;;;;;;8.63;5.63;;;;;;;;;;5131126;27;20379;-78
2022/04/20 06:42:58;;;;;;;9.32;6.05;;;;;;;;;;5131503;28;20023;-82
2022/04/20 06:45:23;;;;;;;9.73;5.72;;;;;;;;;;5132304;28;20031;-78
2022/04/20 06:47:49;;;;;;;7.57;5.13;;;;;;;;;;5130689;28;20025;-81
2022/04/20 06:50:14;;;;;;;8.25;5.15;;;;;;;;;;5132016;27;20020;-78
2022/04/20 07:00:51;;;;;;;6.38;4.30;;;;;;;;;;5121485;28;20026;-77
2022/04/20 07:03:16;;;;;;;6.70;4.45;;;;;;;;;;5118161;28;20011;-78
2022/04/20 07:05:42;;;;;;;6.68;4.20;;;;;;;;;;5120319;28;20059;-81
2022/04/20 07:08:08;;;;;;;6.65;4.90;;;;;;;;;;5117706;28;20024;-76
2022/04/20 07:10:33;;;;;;;6.03;3.53;;;;;;;;;;5119618;28;20383;-77
2022/04/20 07:12:58;;;;;;;6.22;4.20;;;;;;;;;;5119326;28;20185;-76
2022/04/20 07:15:25;;;;;;;7.45;4.30;;;;;;;;;;5119426;27;20464;-77
2022/04/20 07:17:50;;;;;;;5.45;3.72;;;;;;;;;;5121047;27;20023;-75
2022/04/20 07:20:17;;;;;;;5.53;4.03;;;;;;;;;;5118285;28;20019;-76
2022/04/20 07:22:49;;;;;;;6.07;4.55;;;;;;;;;;5119441;28;20023;-77
2022/04/20 07:25:15;;;;;;;8.35;4.63;;;;;;;;;;5120116;28;20441;-77
2022/04/20 07:27:42;;;;;;;8.60;4.40;;;;;;;;;;5119128;28;20052;-79
2022/04/20 07:30:08;;;;;;;6.47;4.53;;;;;;;;;;5120119;27;20514;-81
2022/04/20 07:32:33;;;;;;;6.85;3.92;;;;;;;;;;5121273;28;20051;-77
2022/04/20 07:34:58;;;;;;;7.07;4.10;;;;;;;;;;5124571;27;20023;-78
2022/04/20 07:37:23;;;;;;;7.50;4.87;;;;;;;;;;5123051;27;20784;-76
2022/04/20 07:39:49;;;;;;;5.70;3.77;;;;;;;;;;5124399;27;20577;-79
2022/04/20 07:42:14;;;;;;;6.50;4.47;;;;;;;;;;5120000;27;20812;-79
2022/04/20 07:44:39;;;;;;;5.80;4.15;;;;;;;;;;5123310;27;20099;-79
2022/04/20 07:47:07;;;;;;;5.65;4.00;;;;;;;;;;5122927;27;20014;-77
2022/04/20 07:52:20;;;;;;;6.10;4.38;;;;;;;;;;5116161;27;20502;-76
2022/04/20 07:54:45;;;;;;;5.95;3.90;;;;;;;;;;5123065;27;20015;-77
2022/04/20 07:57:14;;;;;;;4.82;3.75;;;;;;;;;;5122587;27;20508;-76
2022/04/20 07:59:39;;;;;;;6.13;4.50;;;;;;;;;;5123032;27;20016;-76
2022/04/20 08:02:04;;;;;;;5.03;3.83;;;;;;;;;;5120329;27;20015;-79
2022/04/20 08:04:30;;;;;;;5.47;3.75;;;;;;;;;;5128586;27;20027;-76
2022/04/20 08:06:55;;;;;;;4.77;3.27;;;;;;;;;;5137990;27;20054;-78
2022/04/20 08:09:21;;;;;;;6.63;3.63;;;;;;;;;;5123947;27;20324;-74
2022/04/20 08:11:46;;;;;;;4.68;3.40;;;;;;;;;;5124428;27;20482;-74
2022/04/20 08:14:12;;;;;;;4.70;3.30;;;;;;;;;;5122510;27;20012;-74
2022/04/20 08:16:37;;;;;;;4.43;3.05;;;;;;;;;;5121572;27;20022;-75
2022/04/20 08:19:03;;;;;;;4.03;2.88;;;;;;;;;;5121616;27;20027;-75
2022/04/20 08:21:28;;;;;;;3.75;2.70;;;;;;;;;;5127325;27;20020;-82
2022/04/20 08:23:54;;;;;;;5.55;2.97;;;;;;;;;;5131820;27;20011;-85
2022/04/20 08:26:20;;;;;;;4.17;3.07;;;;;;;;;;5133790;27;20026;-86
2022/04/20 08:28:46;;;;;;;4.40;3.13;;;;;;;;;;5131906;27;20272;-79
2022/04/20 08:31:11;;;;;;;3.85;3.00;;;;;;;;;;5130055;27;20057;-83
2022/04/20 08:33:36;;;;;;;4.35;3.10;;;;;;;;;;5128845;27;20015;-80
2022/04/20 08:36:01;;;;;;;5.20;3.00;;;;;;;;;;5147806;27;20030;-85
2022/04/20 08:38:27;;;;;;;4.13;2.90;;;;;;;;;;5136729;27;20030;-84
2022/04/20 08:40:53;;;;;;;4.60;3.20;;;;;;;;;;5122596;27;20149;-80
2022/04/20 08:43:19;;;;;;;4.18;2.88;;;;;;;;;;5121910;27;20019;-79
2022/04/20 08:45:46;;;;;;;4.55;2.78;;;;;;;;;;5127775;27;20011;-77
2022/04/20 08:48:11;;;;;;;4.88;3.20;;;;;;;;;;5119272;27;20100;-73
2022/04/20 08:50:39;;;;;;;4.05;3.33;;;;;;;;;;5113021;27;20042;-72
2022/04/20 08:53:05;;;;;;;4.20;3.20;;;;;;;;;;5123711;27;20034;-72
2022/04/20 08:55:30;;;;;;;4.40;3.08;;;;;;;;;;5121334;27;20560;-72
2022/04/20 08:57:56;;;;;;;3.83;2.88;;;;;;;;;;5122520;27;20019;-72
2022/04/20 09:00:26;;;;;;;6.57;3.15;;;;;;;;;;5127613;27;20087;-73
2022/04/20 09:02:53;;;;;;;4.28;3.05;;;;;;;;;;5123251;27;20071;-73
2022/04/20 09:05:20;;;;;;;4.90;3.45;;;;;;;;;;5114705;27;20111;-75
2022/04/20 09:07:45;;;;;;;20.45;11.18;;;;;;;;;;5112797;28;20050;-75
2022/04/20 09:10:11;;;;;;;5.70;4.10;;;;;;;;;;5112394;28;20055;-82
2022/04/20 09:12:44;;;;;;;4.38;3.38;;;;;;;;;;5112758;28;20288;-74
2022/04/20 09:15:10;;;;;;;4.13;3.10;;;;;;;;;;5112723;28;20020;-74
2022/04/20 09:17:44;;;;;;;5.60;4.47;;;;;;;;;;5112307;28;20016;-76
2022/04/20 09:20:15;;;;;;;4.32;3.17;;;;;;;;;;5112085;28;20108;-75
2022/04/20 09:22:40;;;;;;;4.78;3.08;;;;;;;;;;5112622;28;20418;-74
2022/04/20 09:25:14;;;;;;;3.50;2.83;;;;;;;;;;5112199;28;20015;-74
2022/04/20 09:27:41;;;;;;;3.40;2.50;;;;;;;;;;5110995;28;20399;-76
2022/04/20 09:30:10;;;;;;;4.68;2.88;;;;;;;;;;5112091;28;20366;-76
2022/04/20 09:32:39;;;;;;;4.15;3.10;;;;;;;;;;5112031;28;20024;-75
2022/04/20 09:35:06;;;;;;;3.60;2.70;;;;;;;;;;5111875;28;20016;-74
2022/04/20 09:37:32;;;;;;;4.55;2.97;;;;;;;;;;5112407;28;20429;-74
2022/04/20 09:39:58;;;;;;;3.72;2.80;;;;;;;;;;5113212;28;20465;-74
2022/04/20 09:42:24;;;;;;;3.85;2.88;;;;;;;;;;5115284;28;20027;-73
2022/04/20 09:44:54;;;;;;;3.63;2.70;;;;;;;;;;5118392;28;20384;-72
2022/04/20 09:50:27;;;;;;;9.85;3.65;;;;;;;;;;5097361;27;20027;-73
2022/04/20 09:52:58;;;;;;;4.15;3.05;;;;;;;;;;5117350;27;20035;-74
2022/04/20 09:55:30;;;;;;;4.55;2.90;;;;;;;;;;5114653;28;20038;-74
2022/04/20 09:58:12;;;;;;;3.72;2.80;;;;;;;;;;5117767;27;20038;-75
2022/04/20 10:00:39;;;;;;;6.93;3.28;;;;;;;;;;5123683;27;20026;-74
2022/04/20 10:03:05;;;;;;;4.80;2.95;;;;;;;;;;5127028;27;20046;-74
2022/04/20 10:05:30;;;;;;;3.63;2.65;;;;;;;;;;5124389;27;20463;-74
2022/04/20 10:07:59;;;;;;;4.28;3.00;;;;;;;;;;5131475;27;20020;-74
2022/04/20 10:10:25;;;;;;;4.55;2.70;;;;;;;;;;5124441;27;20023;-73
2022/04/20 10:12:54;;;;;;;4.78;2.83;;;;;;;;;;5123407;27;20027;-74
2022/04/20 10:18:03;;;;;;;4.28;2.80;;;;;;;;;;5124388;27;20490;-74
2022/04/20 10:20:30;;;;;;;5.13;3.42;;;;;;;;;;5114906;27;20044;-73
2022/04/20 10:22:58;;;;;;;7.38;5.32;;;;;;;;;;5137887;27;20019;-75
2022/04/20 10:25:23;;;;;;;9.40;7.47;;;;;;;;;;5134762;27;20019;-73
2022/04/20 10:27:56;;;;;;;4.47;3.20;;;;;;;;;;5129373;28;20419;-73
2022/04/20 10:30:27;;;;;;;4.25;2.95;;;;;;;;;;5114105;27;20259;-75
2022/04/20 10:33:05;;;;;;;4.28;3.17;;;;;;;;;;5128307;28;20031;-76
2022/04/20 10:35:32;;;;;;;4.95;2.95;;;;;;;;;;5129908;27;20023;-74
2022/04/20 10:38:08;;;;;;;4.40;3.20;;;;;;;;;;5119711;28;20020;-73
2022/04/20 10:40:33;;;;;;;5.20;3.25;;;;;;;;;;5119652;27;20086;-74
2022/04/20 10:43:22;;;;;;;4.35;3.05;;;;;;;;;;5110658;28;20016;-74
2022/04/20 10:46:06;;;;;;;4.72;2.90;;;;;;;;;;5110579;28;20051;-74
2022/04/20 10:48:50;;;;;;;5.18;2.97;;;;;;;;;;5111105;28;20396;-74
2022/04/20 10:51:22;;;;;;;4.22;3.00;;;;;;;;;;5111075;28;20036;-75
2022/04/20 10:53:48;;;;;;;3.85;2.90;;;;;;;;;;5112814;28;20014;-75
2022/04/20 10:56:14;;;;;;;4.03;2.83;;;;;;;;;;5116057;28;20148;-74
2022/04/20 10:59:06;;;;;;;4.07;2.90;;;;;;;;;;5121867;28;20015;-75
2022/04/20 11:01:31;;;;;;;5.45;3.63;;;;;;;;;;5114871;28;20032;-74
2022/04/20 11:04:02;;;;;;;5.23;3.13;;;;;;;;;;5120959;28;20011;-74
2022/04/20 11:06:48;;;;;;;4.53;2.70;;;;;;;;;;5118075;28;20263;-74
2022/04/20 11:09:32;;;;;;;5.38;3.10;;;;;;;;;;5112633;27;20066;-75
2022/04/20 11:20:20;;;;;;;7.32;3.10;;;;;;;;;;5125562;27;20425;-74
2022/04/20 11:22:45;;;;;;;4.90;2.70;;;;;;;;;;5124267;27;20012;-74
2022/04/20 11:25:11;;;;;;;4.32;3.00;;;;;;;;;;5125733;27;20025;-75
2022/04/20 11:27:37;;;;;;;4.57;3.00;;;;;;;;;;5103496;28;20063;-74
2022/04/20 11:30:04;;;;;;;4.60;3.28;;;;;;;;;;5113578;28;20046;-75
2022/04/20 11:32:29;;;;;;;5.03;3.08;;;;;;;;;;5095304;28;20032;-75
2022/04/20 11:35:11;;;;;;;4.60;2.90;;;;;;;;;;5101495;28;20111;-75
2022/04/20 11:37:37;;;;;;;4.38;3.03;;;;;;;;;;5091827;28;20513;-78
2022/04/20 11:40:11;;;;;;;4.35;3.13;;;;;;;;;;5093445;28;20012;-75
2022/04/20 11:42:36;;;;;;;5.35;3.17;;;;;;;;;;5093216;28;20028;-76
2022/04/20 11:45:02;;;;;;;10.27;3.15;;;;;;;;;;5093890;28;20046;-75
2022/04/20 11:47:27;;;;;;;4.38;2.80;;;;;;;;;;5095606;28;20480;-77
2022/04/20 11:49:55;;;;;;;4.45;3.15;;;;;;;;;;5095720;28;20015;-78
2022/04/20 11:52:21;;;;;;;5.63;3.15;;;;;;;;;;5096799;28;20054;-81
2022/04/20 11:54:46;;;;;;;4.32;2.72;;;;;;;;;;5102185;28;20012;-80
2022/04/20 11:57:12;;;;;;;7.18;3.50;;;;;;;;;;5107086;28;20027;-75
2022/04/20 11:59:41;;;;;;;5.68;3.10;;;;;;;;;;5103639;28;20400;-86
2022/04/20 12:02:06;;;;;;;4.78;3.08;;;;;;;;;;5099376;28;20555;-82
2022/04/20 12:04:32;;;;;;;6.18;3.63;;;;;;;;;;5108644;28;20053;-85
2022/04/20 12:06:59;;;;;;;5.70;3.05;;;;;;;;;;5106079;28;20020;-82
2022/04/20 12:09:31;;;;;;;5.72;3.30;;;;;;;;;;5109816;28;20034;-84
2022/04/20 12:11:57;;;;;;;6.18;3.13;;;;;;;;;;5103364;28;20080;-80
2022/04/20 12:14:24;;;;;;;5.25;2.97;;;;;;;;;;5109088;28;20031;-79
2022/04/20 12:16:51;;;;;;;4.10;2.72;;;;;;;;;;5109948;28;20053;-80
2022/04/20 12:19:16;;;;;;;4.25;3.00;;;;;;;;;;5108894;28;20451;-84
2022/04/20 12:21:43;;;;;;;3.83;2.70;;;;;;;;;;5104771;28;20067;-83
2022/04/20 12:24:09;;;;;;;3.97;2.63;;;;;;;;;;5116359;28;20042;-80
2022/04/20 12:26:39;;;;;;;4.43;3.13;;;;;;;;;;5103890;28;20027;-75
2022/04/20 12:29:06;;;;;;;3.75;2.70;;;;;;;;;;5091102;28;20048;-74
2022/04/20 12:31:33;;;;;;;7.28;3.58;;;;;;;;;;5101333;28;20022;-74
2022/04/20 12:34:03;;;;;;;5.20;3.00;;;;;;;;;;5114535;27;20617;-77
2022/04/20 12:36:29;;;;;;;3.80;2.90;;;;;;;;;;5103068;28;20016;-73
2022/04/20 12:38:55;;;;;;;4.07;2.97;;;;;;;;;;5101408;28;20023;-74
2022/04/20 12:41:37;;;;;;;5.15;2.95;;;;;;;;;;5094223;28;20020;-74
2022/04/20 12:44:22;;;;;;;4.30;2.85;;;;;;;;;;5094989;28;20038;-75
2022/04/20 12:46:47;;;;;;;4.18;3.00;;;;;;;;;;5102777;28;20032;-74
2022/04/20 12:49:25;;;;;;;4.15;2.65;;;;;;;;;;5096778;28;20175;-75
2022/04/20 12:51:51;;;;;;;4.00;2.65;;;;;;;;;;5102797;28;20047;-76
2022/04/20 12:54:24;;;;;;;3.88;2.83;;;;;;;;;;5099839;27;20115;-74
2022/04/20 13:02:17;;;;;;;5.25;2.75;;;;;;;;;;5095422;28;20494;-75
2022/04/20 13:04:48;;;;;;;5.07;2.83;;;;;;;;;;5108864;28;20023;-76
2022/04/20 13:07:14;;;;;;;3.65;2.50;;;;;;;;;;5097857;28;20272;-76
2022/04/20 13:09:39;;;;;;;3.78;2.55;;;;;;;;;;5096968;28;20038;-76
2022/04/20 13:12:04;;;;;;;5.77;3.60;;;;;;;;;;5096513;28;20032;-76
2022/04/20 13:14:31;;;;;;;4.65;3.40;;;;;;;;;;5096039;28;20259;-76
2022/04/20 13:16:56;;;;;;;4.82;3.10;;;;;;;;;;5102544;28;20115;-76
2022/04/20 13:19:21;;;;;;;5.60;2.83;;;;;;;;;;5103744;28;20043;-75
2022/04/20 13:21:47;;;;;;;4.65;3.00;;;;;;;;;;5097528;28;20028;-77
2022/04/20 13:24:12;;;;;;;3.92;2.72;;;;;;;;;;5089137;28;20012;-77
2022/04/20 13:29:22;;;;;;;6.35;3.15;;;;;;;;;;5091817;28;20062;-77
2022/04/20 13:31:48;;;;;;;4.38;2.90;;;;;;;;;;5090597;28;20077;-77
2022/04/20 13:34:13;;;;;;;5.03;3.45;;;;;;;;;;5095966;28;20027;-75
2022/04/20 13:36:38;;;;;;;4.22;2.80;;;;;;;;;;5090724;28;20101;-74
2022/04/20 13:39:03;;;;;;;5.38;3.42;;;;;;;;;;5089273;28;20020;-74
2022/04/20 13:41:29;;;;;;;3.78;2.90;;;;;;;;;;5091341;28;20032;-75
2022/04/20 13:43:54;;;;;;;5.15;3.30;;;;;;;;;;5093474;28;20034;-76
2022/04/20 13:46:19;;;;;;;6.03;2.55;;;;;;;;;;5099002;28;20028;-75
2022/04/20 13:48:44;;;;;;;4.30;2.80;;;;;;;;;;5090236;28;20513;-74
2022/04/20 13:51:10;;;;;;;4.43;3.10;;;;;;;;;;5090140;28;20040;-77
2022/04/20 13:53:35;;;;;;;4.65;3.25;;;;;;;;;;5096405;28;20313;-76
2022/04/20 13:56:00;;;;;;;4.13;2.70;;;;;;;;;;5097670;28;20114;-77
2022/04/20 13:58:25;;;;;;;7.30;2.90;;;;;;;;;;5103314;28;20016;-77
2022/04/20 14:00:51;;;;;;;3.87;2.67;;;;;;;;;;5102974;28;20020;-74
2022/04/20 14:03:16;;;;;;;6.13;3.03;;;;;;;;;;5098933;28;20265;-75
2022/04/20 14:05:42;;;;;;;3.63;2.70;;;;;;;;;;5100602;28;20453;-75
2022/04/20 14:08:08;;;;;;;6.05;3.05;;;;;;;;;;5099006;28;20039;-73
2022/04/20 14:10:33;;;;;;;4.40;2.70;;;;;;;;;;5097072;28;20112;-75
2022/04/20 14:12:58;;;;;;;4.47;2.67;;;;;;;;;;5099959;28;20027;-79
2022/04/20 14:15:24;;;;;;;4.60;3.08;;;;;;;;;;5100435;28;20015;-76
2022/04/20 14:17:49;;;;;;;4.60;3.00;;;;;;;;;;5099306;28;20028;-78
2022/04/20 14:20:17;;;;;;;3.92;2.58;;;;;;;;;;5097126;28;20019;-76
2022/04/20 14:22:42;;;;;;;4.15;2.72;;;;;;;;;;5092582;28;20020;-76
2022/04/20 14:33:20;;;;;;;4.88;3.00;;;;;;;;;;5103948;28;20047;-76
2022/04/20 14:35:46;;;;;;;3.70;2.60;;;;;;;;;;5095865;28;20415;-77
2022/04/20 14:38:11;;;;;;;3.95;2.55;;;;;;;;;;5113430;28;20015;-85
2022/04/20 14:40:37;;;;;;;5.63;2.37;;;;;;;;;;5107941;28;20490;-85
2022/04/20 14:43:02;;;;;;;4.22;2.78;;;;;;;;;;5122916;28;20269;-81
2022/04/20 14:45:27;;;;;;;4.28;3.20;;;;;;;;;;5120516;28;20022;-87
2022/04/20 14:47:53;;;;;;;5.35;3.47;;;;;;;;;;5111342;28;20019;-82
2022/04/20 14:50:20;;;;;;;4.25;2.50;;;;;;;;;;5109048;28;20484;-85
2022/04/20 14:52:48;;;;;;;3.95;2.58;;;;;;;;;;5105721;28;20623;-85
2022/04/20 14:55:13;;;;;;;3.85;2.45;;;;;;;;;;5120449;28;20083;-83
2022/04/20 14:57:39;;;;;;;4.32;2.90;;;;;;;;;;5114694;28;20807;-87
2022/04/20 15:00:07;;;;;;;3.47;2.40;;;;;;;;;;5121060;28;20067;-83
2022/04/20 15:02:35;;;;;;;3.95;2.50;;;;;;;;;;5116929;28;21564;-86
2022/04/20 15:05:00;;;;;;;3.53;2.30;;;;;;;;;;5109266;28;20028;-85
2022/04/20 15:07:25;;;;;;;3.60;2.30;;;;;;;;;;5120645;28;20049;-83
2022/04/20 15:09:50;;;;;;;3.83;2.40;;;;;;;;;;5128468;28;20027;-87
2022/04/20 15:12:16;;;;;;;3.17;2.20;;;;;;;;;;5124226;28;20084;-79
2022/04/20 15:14:41;;;;;;;3.50;2.47;;;;;;;;;;5110781;28;20318;-80
2022/04/20 15:17:06;;;;;;;3.50;2.10;;;;;;;;;;5112941;28;20260;-86
2022/04/20 15:19:31;;;;;;;3.00;2.10;;;;;;;;;;5113669;28;20359;-81
2022/04/20 15:21:57;;;;;;;5.22;2.88;;;;;;;;;;5115936;28;20311;-78
2022/04/20 15:24:22;;;;;;;3.38;2.47;;;;;;;;;;5097398;28;20004;-78
2022/04/20 15:26:48;;;;;;;3.80;2.40;;;;;;;;;;5095747;28;20012;-77
2022/04/20 15:29:14;;;;;;;4.70;3.00;;;;;;;;;;5095426;28;20028;-75
2022/04/20 15:31:39;;;;;;;3.67;2.53;;;;;;;;;;5099481;27;20423;-76